Time;durP1;ratioP1;P1;durP2;ratioP2;P2;SDS_P1;SDS_P2;PMS_P1;PMS_P2;Temp;Humidity;BMP_temperature;BMP_pressure;BME280_temperature;BME280_humidity;BME280_pressure;Samples;Min_cycle;Max_cycle;Signal;HPM_P1;HPM_P2
2023/04/17 00:01:07;;;;;;;7.12;3.00;;;;;;;12.30;61.22;98831.62;4375695;32;34978;-82
2023/04/17 00:03:34;;;;;;;5.55;3.65;;;;;;;12.40;60.87;98833.38;4374958;32;33577;-83
2023/04/17 00:06:03;;;;;;;6.70;3.20;;;;;;;12.27;61.27;98836.84;4375587;32;34064;-83
2023/04/17 00:08:31;;;;;;;6.60;3.12;;;;;;;12.24;61.11;98842.06;4375554;32;33360;-84
2023/04/17 00:10:58;;;;;;;6.80;3.17;;;;;;;12.37;61.08;98841.19;4375639;32;33943;-83
2023/04/17 00:13:33;;;;;;;5.55;3.58;;;;;;;12.08;62.01;98830.75;4375346;32;33918;-83
2023/04/17 00:16:01;;;;;;;6.50;3.30;;;;;;;12.06;61.92;98830.75;4375451;32;33481;-83
2023/04/17 00:18:29;;;;;;;5.55;3.17;;;;;;;12.34;61.33;98829.03;4375462;32;34750;-82
2023/04/17 00:20:56;;;;;;;5.82;3.55;;;;;;;12.14;61.58;98826.44;4375592;32;35013;-83
2023/04/17 00:23:25;;;;;;;5.75;3.42;;;;;;;11.82;62.74;98826.38;4375191;32;33721;-83
2023/04/17 00:25:52;;;;;;;6.62;3.67;;;;;;;11.82;62.85;98825.47;4375484;32;33486;-83
2023/04/17 00:28:19;;;;;;;7.50;3.83;;;;;;;11.86;62.90;98822.06;4362098;32;33932;-83
2023/04/17 00:30:47;;;;;;;6.53;3.80;;;;;;;11.99;62.19;98820.34;4375497;32;33751;-83
2023/04/17 00:33:15;;;;;;;6.43;3.83;;;;;;;12.03;62.40;98822.09;4361407;32;33904;-83
2023/04/17 00:35:42;;;;;;;6.12;3.50;;;;;;;12.06;62.27;98820.37;4375194;32;33333;-84
2023/04/17 00:38:10;;;;;;;6.80;3.85;;;;;;;12.19;61.79;98823.81;4374902;32;34116;-83
2023/04/17 00:40:37;;;;;;;6.72;3.75;;;;;;;12.28;61.65;98823.00;4375504;32;34022;-83
2023/04/17 00:43:05;;;;;;;7.90;4.05;;;;;;;11.94;62.75;98825.56;4375452;32;34028;-83
2023/04/17 00:45:33;;;;;;;5.47;3.45;;;;;;;11.97;62.50;98825.56;4334377;32;34149;-82
2023/04/17 00:48:05;;;;;;;7.68;4.28;;;;;;;12.37;61.19;98826.44;4361064;32;33653;-82
2023/04/17 00:50:33;;;;;;;7.05;4.47;;;;;;;11.73;63.30;98823.72;4359252;32;33836;-83
2023/04/17 00:53:01;;;;;;;6.55;3.55;;;;;;;11.93;62.45;98823.78;4360152;32;33852;-83
2023/04/17 00:55:30;;;;;;;6.43;4.18;;;;;;;11.81;63.28;98824.59;4361526;32;34135;-83
2023/04/17 00:57:58;;;;;;;6.07;4.00;;;;;;;11.74;63.43;98828.03;4361760;32;34066;-84
2023/04/17 01:00:25;;;;;;;6.03;4.43;;;;;;;11.35;64.84;98823.59;4375414;32;34041;-82
2023/04/17 01:02:56;;;;;;;6.37;4.53;;;;;;;11.67;63.95;98827.19;4375189;32;34248;-85
2023/04/17 01:05:26;;;;;;;7.87;4.45;;;;;;;12.17;62.50;98815.19;4361393;32;33539;-83
2023/04/17 01:07:57;;;;;;;6.10;4.10;;;;;;;11.62;64.14;98815.91;4361531;32;33701;-83
2023/04/17 01:10:24;;;;;;;6.87;5.10;;;;;;;11.60;64.53;98820.25;4361672;32;35027;-82
2023/04/17 01:13:03;;;;;;;6.93;4.50;;;;;;;11.30;65.53;98825.31;4361208;32;34732;-82
2023/04/17 01:15:31;;;;;;;6.60;4.70;;;;;;;11.56;64.68;98818.50;4375203;32;33496;-83
2023/04/17 01:17:59;;;;;;;6.97;4.45;;;;;;;11.77;64.06;98824.59;4374885;32;33795;-82
2023/04/17 01:20:30;;;;;;;7.60;4.68;;;;;;;12.25;62.32;98815.19;4361248;32;32558;-83
2023/04/17 01:22:58;;;;;;;8.50;5.22;;;;;;;11.94;63.41;98817.75;4374837;32;34896;-82
2023/04/17 01:25:26;;;;;;;7.75;5.05;;;;;;;11.65;64.16;98818.50;4373914;32;34119;-83
2023/04/17 01:27:55;;;;;;;7.35;4.35;;;;;;;11.81;63.97;98813.34;4375061;32;33788;-82
2023/04/17 01:30:23;;;;;;;7.60;4.97;;;;;;;11.76;64.03;98813.34;4375290;32;35184;-83
2023/04/17 01:32:54;;;;;;;8.52;4.47;;;;;;;11.81;63.83;98805.56;4375426;32;34282;-82
2023/04/17 01:35:22;;;;;;;10.38;4.80;;;;;;;11.80;63.77;98811.63;4374615;32;34188;-82
2023/04/17 01:37:49;;;;;;;9.20;4.80;;;;;;;11.76;63.93;98809.88;4361393;32;33960;-82
2023/04/17 01:40:17;;;;;;;8.15;5.20;;;;;;;11.38;64.99;98813.25;4374342;32;34882;-82
2023/04/17 01:42:44;;;;;;;7.05;4.78;;;;;;;11.69;64.21;98809.88;4374479;32;34051;-82
2023/04/17 01:45:12;;;;;;;8.05;4.93;;;;;;;11.91;63.55;98808.22;4361302;32;33506;-83
2023/04/17 01:47:40;;;;;;;6.50;4.62;;;;;;;11.84;63.67;98800.41;4374474;32;34009;-83
2023/04/17 01:50:08;;;;;;;8.15;5.32;;;;;;;11.76;63.85;98810.75;4374322;32;33855;-82
2023/04/17 01:52:36;;;;;;;10.52;5.20;;;;;;;11.33;65.44;98813.22;4374640;32;34280;-82
2023/04/17 01:55:03;;;;;;;8.05;5.15;;;;;;;11.49;64.84;98806.34;4373971;32;33711;-84
2023/04/17 01:57:32;;;;;;;7.32;4.87;;;;;;;11.47;65.02;98813.25;4375065;32;33909;-84
2023/04/17 01:59:59;;;;;;;7.50;5.15;;;;;;;11.66;64.10;98807.25;4376781;32;35450;-84
2023/04/17 02:02:27;;;;;;;8.07;4.28;;;;;;;11.79;64.14;98804.72;4376077;32;34547;-83
2023/04/17 02:04:55;;;;;;;7.20;4.68;;;;;;;11.51;64.87;98802.03;4362893;32;33843;-83
2023/04/17 02:07:22;;;;;;;7.32;4.93;;;;;;;11.71;63.96;98803.84;4376466;32;33932;-83
2023/04/17 02:09:49;;;;;;;7.82;4.90;;;;;;;11.41;65.04;98803.72;4376126;32;35010;-83
2023/04/17 02:12:18;;;;;;;7.50;4.62;;;;;;;11.68;64.20;98804.69;4376307;32;33715;-82
2023/04/17 02:14:45;;;;;;;7.25;5.00;;;;;;;11.90;63.40;98805.63;4376539;32;34194;-84
2023/04/17 02:17:12;;;;;;;7.95;4.80;;;;;;;11.48;64.58;98803.72;4376235;32;33886;-83
2023/04/17 02:19:40;;;;;;;6.55;4.57;;;;;;;11.73;63.92;98807.28;4376245;32;35167;-83
2023/04/17 02:22:07;;;;;;;6.55;4.53;;;;;;;11.50;64.16;98810.69;4362507;32;33319;-82
2023/04/17 02:24:35;;;;;;;6.43;4.35;;;;;;;11.95;62.77;98798.69;4362435;32;33216;-83
2023/04/17 02:27:03;;;;;;;8.07;4.20;;;;;;;12.26;61.80;98807.38;4376510;32;34098;-83
2023/04/17 02:29:30;;;;;;;7.15;3.80;;;;;;;12.32;61.33;98801.31;4376096;32;34074;-82
2023/04/17 02:31:57;;;;;;;6.75;4.28;;;;;;;12.33;61.57;98803.91;4376073;32;34411;-83
2023/04/17 02:34:26;;;;;;;7.25;4.40;;;;;;;12.29;61.30;98803.91;4362253;32;33313;-83
2023/04/17 02:36:53;;;;;;;7.15;3.95;;;;;;;12.47;60.57;98798.72;4376608;32;33752;-83
2023/04/17 02:39:22;;;;;;;7.32;4.28;;;;;;;12.21;61.65;98790.06;4376325;32;33896;-82
2023/04/17 02:41:50;;;;;;;5.95;3.85;;;;;;;12.54;60.60;98795.25;4362913;32;34309;-83
2023/04/17 02:44:17;;;;;;;6.95;3.80;;;;;;;12.49;61.28;98783.97;4376244;32;34231;-83
2023/04/17 02:46:44;;;;;;;7.53;4.18;;;;;;;12.86;60.71;98784.78;4375827;32;34765;-83
2023/04/17 02:49:12;;;;;;;7.93;3.60;;;;;;;12.82;60.70;98787.38;4376056;32;35025;-82
2023/04/17 02:51:40;;;;;;;6.57;3.85;;;;;;;12.93;60.30;98785.62;4376174;32;34688;-83
2023/04/17 02:54:08;;;;;;;5.80;3.55;;;;;;;12.91;59.92;98784.75;4376239;32;33338;-84
2023/04/17 02:56:35;;;;;;;5.53;3.42;;;;;;;13.06;59.84;98789.91;4375999;32;33972;-83
2023/04/17 02:59:03;;;;;;;5.62;3.40;;;;;;;12.80;61.53;98783.91;4376078;32;34202;-85
2023/04/17 03:01:32;;;;;;;6.40;4.05;;;;;;;12.91;59.83;98788.22;4375732;32;34792;-83
2023/04/17 03:04:00;;;;;;;6.00;3.70;;;;;;;12.54;60.14;98787.44;4374050;32;34205;-84
2023/04/17 03:06:29;;;;;;;6.68;3.62;;;;;;;12.59;60.87;98792.62;4373608;32;34981;-82
2023/04/17 03:08:56;;;;;;;7.18;3.33;;;;;;;12.28;60.88;98799.59;4375154;32;34265;-84
2023/04/17 03:11:24;;;;;;;5.85;3.67;;;;;;;12.51;60.06;98803.06;4374456;32;33284;-83
2023/04/17 03:13:52;;;;;;;8.48;3.72;;;;;;;12.11;61.53;98800.44;4361672;32;33766;-83
2023/04/17 03:16:21;;;;;;;6.57;4.03;;;;;;;12.34;60.59;98804.78;4374601;32;34097;-83
2023/04/17 03:18:49;;;;;;;7.87;3.60;;;;;;;12.48;60.85;98812.59;4374271;32;34263;-83
2023/04/17 03:21:16;;;;;;;6.40;3.50;;;;;;;12.73;60.71;98808.19;4375826;32;33990;-83
2023/04/17 03:23:44;;;;;;;5.90;3.47;;;;;;;12.79;61.13;98808.19;4375115;32;33640;-82
2023/04/17 03:26:11;;;;;;;5.72;3.35;;;;;;;12.95;60.61;98804.69;4374572;32;34053;-83
2023/04/17 03:28:39;;;;;;;7.82;3.37;;;;;;;12.12;62.87;98794.41;4361951;32;35138;-84
2023/04/17 03:31:06;;;;;;;5.95;3.28;;;;;;;12.38;61.35;98803.91;4375700;32;34829;-84
2023/04/17 03:33:36;;;;;;;8.70;3.60;;;;;;;12.53;61.51;98803.91;4376018;32;33660;-83
2023/04/17 03:36:04;;;;;;;6.45;3.15;;;;;;;12.24;60.43;98800.47;4374905;32;33538;-83
2023/04/17 03:38:34;;;;;;;8.10;3.30;;;;;;;12.70;59.37;98808.22;4376144;32;34241;-83
2023/04/17 03:41:02;;;;;;;5.82;3.30;;;;;;;12.81;58.64;98802.13;4362602;32;34033;-83
2023/04/17 03:43:30;;;;;;;5.82;2.85;;;;;;;12.47;59.33;98801.31;4374931;32;33630;-83
2023/04/17 03:45:57;;;;;;;6.20;2.65;;;;;;;11.87;58.48;98796.09;4375730;32;35286;-85
2023/04/17 03:48:25;;;;;;;4.55;2.37;;;;;;;12.41;57.17;98811.72;4375868;32;34348;-83
2023/04/17 03:50:52;;;;;;;5.05;2.70;;;;;;;12.54;58.86;98796.97;4349514;32;33577;-82
2023/04/17 03:53:20;;;;;;;5.53;2.72;;;;;;;12.53;57.04;98810.84;4349147;32;32841;-82
2023/04/17 03:55:48;;;;;;;4.57;2.85;;;;;;;12.77;57.50;98812.56;4375717;32;33971;-83
2023/04/17 03:58:19;;;;;;;6.43;3.10;;;;;;;12.92;58.19;98809.91;4362097;32;32835;-83
2023/04/17 04:00:47;;;;;;;6.07;2.78;;;;;;;12.98;57.89;98814.22;4375274;32;34481;-84
2023/04/17 04:03:15;;;;;;;4.62;2.50;;;;;;;12.83;56.99;98810.78;4374417;32;33543;-84
2023/04/17 04:05:42;;;;;;;5.05;2.75;;;;;;;13.04;58.46;98814.22;4375821;32;33984;-82
2023/04/17 04:08:10;;;;;;;5.00;2.58;;;;;;;12.98;59.20;98815.09;4362303;32;34983;-83
2023/04/17 04:10:38;;;;;;;7.75;3.30;;;;;;;13.18;58.76;98815.03;4375230;32;34041;-84
2023/04/17 04:13:05;;;;;;;5.78;2.87;;;;;;;12.51;57.76;98816.03;4362440;32;33905;-83
2023/04/17 04:15:33;;;;;;;4.68;2.60;;;;;;;12.81;59.09;98822.94;4360931;32;33980;-83
2023/04/17 04:18:01;;;;;;;5.65;2.70;;;;;;;13.00;56.64;98820.31;4371435;32;34015;-83
2023/04/17 04:20:30;;;;;;;5.75;2.95;;;;;;;13.19;57.99;98822.00;4372961;32;33872;-83
2023/04/17 04:23:02;;;;;;;5.80;2.60;;;;;;;12.54;57.39;98829.06;4362285;32;33620;-84
2023/04/17 04:25:31;;;;;;;6.00;3.30;;;;;;;12.44;58.18;98823.84;4374313;32;34929;-82
2023/04/17 04:28:00;;;;;;;5.45;3.00;;;;;;;12.66;57.51;98828.19;4372299;32;34242;-84
2023/04/17 04:30:34;;;;;;;4.68;2.45;;;;;;;12.83;57.22;98828.13;4360381;32;34011;-82
2023/04/17 04:33:04;;;;;;;6.07;3.42;;;;;;;12.98;58.48;98833.31;4362647;32;33602;-83
2023/04/17 04:35:32;;;;;;;5.28;3.05;;;;;;;12.49;58.46;98833.38;4359989;32;33888;-82
2023/04/17 04:38:00;;;;;;;5.35;3.08;;;;;;;13.03;57.85;98838.50;4372535;32;33767;-82
2023/04/17 04:40:34;;;;;;;13.82;3.28;;;;;;;13.17;58.12;98839.34;4374471;32;34820;-83
2023/04/17 04:43:03;;;;;;;6.57;2.92;;;;;;;13.44;57.92;98846.22;4360784;32;33712;-84
2023/04/17 04:45:31;;;;;;;5.40;3.05;;;;;;;13.36;59.08;98847.97;4358356;32;34370;-83
2023/04/17 04:47:59;;;;;;;5.18;3.03;;;;;;;13.50;59.19;98854.00;4375322;32;35097;-83
2023/04/17 04:50:28;;;;;;;5.80;3.33;;;;;;;13.50;59.25;98859.22;4349516;32;32419;-83
2023/04/17 04:52:56;;;;;;;5.80;3.00;;;;;;;13.52;59.28;98857.47;4375219;32;33241;-83
2023/04/17 04:55:25;;;;;;;6.03;3.28;;;;;;;13.34;60.20;98853.22;4360701;32;33797;-83
2023/04/17 04:57:53;;;;;;;6.25;2.85;;;;;;;13.11;60.37;98861.06;4361732;32;33739;-83
2023/04/17 05:00:22;;;;;;;7.22;2.90;;;;;;;13.31;59.78;98865.37;4361760;32;33597;-83
2023/04/17 05:02:50;;;;;;;5.60;2.95;;;;;;;13.45;59.40;98866.19;4349150;32;33632;-85
2023/04/17 05:05:19;;;;;;;5.30;3.00;;;;;;;13.56;59.50;98867.03;4365435;32;33662;-84
2023/04/17 05:07:46;;;;;;;6.05;2.83;;;;;;;13.64;59.49;98874.81;4375099;32;34035;-84
2023/04/17 05:10:14;;;;;;;4.62;2.80;;;;;;;13.63;59.14;98867.84;4362223;32;33258;-83
2023/04/17 05:12:43;;;;;;;5.15;3.00;;;;;;;13.69;59.11;98860.00;4375381;32;33460;-85
2023/04/17 05:15:10;;;;;;;5.37;2.95;;;;;;;13.74;59.09;98862.59;4362977;32;34827;-84
2023/04/17 05:17:40;;;;;;;5.45;2.90;;;;;;;13.62;59.54;98861.75;4368210;32;35076;-84
2023/04/17 05:20:15;;;;;;;5.45;2.87;;;;;;;13.71;59.29;98865.19;4361486;32;34587;-83
2023/04/17 05:22:44;;;;;;;7.25;3.20;;;;;;;13.75;59.36;98869.50;4375289;32;34236;-83
2023/04/17 05:25:11;;;;;;;5.05;2.78;;;;;;;13.69;59.43;98873.03;4375000;32;34706;-83
2023/04/17 05:27:39;;;;;;;8.50;3.05;;;;;;;13.65;59.38;98871.31;4374510;32;34244;-85
2023/04/17 05:30:07;;;;;;;5.78;3.28;;;;;;;13.56;59.93;98877.44;4361582;32;34058;-84
2023/04/17 05:32:35;;;;;;;5.10;2.87;;;;;;;13.56;60.10;98877.44;4372310;32;33624;-84
2023/04/17 05:35:07;;;;;;;7.12;3.30;;;;;;;13.88;59.33;98869.47;4372206;32;34070;-83
2023/04/17 05:37:35;;;;;;;5.68;3.20;;;;;;;13.58;60.14;98875.69;4375221;32;33997;-84
2023/04/17 05:40:05;;;;;;;7.70;3.03;;;;;;;13.68;60.18;98875.66;4374860;32;33576;-84
2023/04/17 05:42:33;;;;;;;4.90;2.70;;;;;;;13.87;60.04;98872.94;4373917;32;33087;-84
2023/04/17 05:45:01;;;;;;;6.40;2.92;;;;;;;13.89;59.90;98867.72;4374422;32;33857;-83
2023/04/17 05:47:29;;;;;;;6.30;2.45;;;;;;;13.95;59.89;98872.91;4373855;32;35199;-84
2023/04/17 05:49:57;;;;;;;7.78;2.97;;;;;;;13.85;60.44;98874.69;4359148;32;35920;-84
2023/04/17 05:52:26;;;;;;;5.47;2.92;;;;;;;13.83;60.41;98875.59;4345370;32;33496;-85
2023/04/17 05:54:55;;;;;;;6.85;3.42;;;;;;;13.93;59.06;98877.25;4347558;32;33967;-85
2023/04/17 05:57:23;;;;;;;7.60;3.12;;;;;;;13.97;57.22;98878.97;4359708;32;34236;-84
2023/04/17 05:59:51;;;;;;;6.07;2.87;;;;;;;13.99;57.93;98874.63;4358846;32;33749;-85
2023/04/17 06:02:18;;;;;;;5.95;2.97;;;;;;;14.09;56.57;98876.31;4359667;32;34189;-85
2023/04/17 06:04:46;;;;;;;6.32;3.03;;;;;;;14.36;52.38;98871.78;4359484;32;33945;-85
2023/04/17 06:07:14;;;;;;;6.40;3.37;;;;;;;14.15;53.72;98883.22;4358638;32;34360;-85
2023/04/17 06:09:42;;;;;;;6.45;2.67;;;;;;;14.25;53.06;98879.69;4359277;32;35327;-85
2023/04/17 06:12:14;;;;;;;6.10;3.12;;;;;;;14.25;52.28;98876.19;4359919;32;33141;-85
2023/04/17 06:14:42;;;;;;;6.85;2.70;;;;;;;14.38;51.43;98880.44;4359598;32;33859;-85
2023/04/17 06:17:11;;;;;;;8.80;2.83;;;;;;;14.54;50.70;98871.66;4356837;32;34119;-84
2023/04/17 06:19:38;;;;;;;6.22;2.53;;;;;;;14.32;51.86;98877.91;4359520;32;33940;-86
2023/04/17 06:22:06;;;;;;;6.07;2.90;;;;;;;14.56;50.75;98874.25;4358934;32;34411;-83
2023/04/17 06:24:35;;;;;;;6.12;2.87;;;;;;;14.72;51.33;98881.06;4357570;32;33848;-84
2023/04/17 06:27:03;;;;;;;7.12;3.60;;;;;;;14.83;50.96;98883.59;4359478;32;34271;-83
2023/04/17 06:29:30;;;;;;;7.45;2.90;;;;;;;14.73;50.72;98877.56;4359428;32;34003;-83
2023/04/17 06:31:58;;;;;;;7.07;3.12;;;;;;;14.81;51.46;98886.22;4359267;32;33354;-85
2023/04/17 06:34:26;;;;;;;8.55;3.58;;;;;;;14.53;51.66;98882.09;4359516;32;34922;-83
2023/04/17 06:36:54;;;;;;;5.53;2.92;;;;;;;15.00;50.09;98891.25;4359324;32;33681;-84
2023/04/17 06:39:22;;;;;;;6.43;3.00;;;;;;;15.23;49.22;98893.66;4357122;32;33753;-83
2023/04/17 06:41:49;;;;;;;5.60;3.22;;;;;;;15.12;50.23;98888.56;4358515;32;33552;-84
2023/04/17 06:44:23;;;;;;;7.10;3.20;;;;;;;15.19;51.02;98894.56;4352645;32;34827;-83
2023/04/17 06:46:52;;;;;;;8.10;2.67;;;;;;;15.30;48.72;98901.44;4361183;32;34225;-84
2023/04/17 06:49:20;;;;;;;7.80;3.92;;;;;;;15.15;49.55;98900.69;4372366;32;33956;-85
2023/04/17 06:51:48;;;;;;;5.75;2.72;;;;;;;15.22;49.77;98899.75;4376154;32;34377;-85
2023/04/17 06:54:16;;;;;;;13.60;3.62;;;;;;;15.43;48.13;98904.75;4376038;32;34568;-84
2023/04/17 06:56:43;;;;;;;5.85;3.33;;;;;;;15.44;47.81;98905.63;4376122;32;34961;-85
2023/04/17 06:59:11;;;;;;;5.43;2.60;;;;;;;15.50;46.40;98905.56;4376051;32;33828;-85
2023/04/17 07:01:39;;;;;;;6.22;3.30;;;;;;;15.66;46.58;98909.75;4376592;32;33687;-85
2023/04/17 07:04:07;;;;;;;6.45;3.30;;;;;;;15.61;46.04;98910.63;4376205;32;33931;-84
2023/04/17 07:06:36;;;;;;;6.12;3.25;;;;;;;15.57;46.37;98913.31;4376063;32;34138;-85
2023/04/17 07:09:04;;;;;;;7.00;3.00;;;;;;;15.77;47.24;98912.25;4375945;32;34656;-84
2023/04/17 07:11:31;;;;;;;7.05;3.35;;;;;;;15.64;46.21;98910.59;4376189;32;33088;-85
2023/04/17 07:13:59;;;;;;;9.55;4.22;;;;;;;15.58;46.08;98912.41;4375838;32;33747;-84
2023/04/17 07:16:26;;;;;;;5.72;3.20;;;;;;;15.90;45.60;98915.56;4362516;32;35048;-84
2023/04/17 07:56:45;;;;;;;11.70;3.03;;;;;;;17.01;45.41;98927.00;4347445;33;20120;-86
2023/04/17 07:59:13;;;;;;;5.72;2.40;;;;;;;16.86;44.00;98922.03;4348629;33;34778;-85
2023/04/17 08:01:40;;;;;;;6.80;3.00;;;;;;;16.98;44.85;98919.22;4348676;33;35265;-85
2023/04/17 08:04:08;;;;;;;5.75;2.25;;;;;;;17.43;44.70;98926.28;4336146;33;34850;-85
2023/04/17 08:06:36;;;;;;;5.35;2.72;;;;;;;17.41;44.96;98926.28;4348400;33;34818;-85
2023/04/17 08:09:04;;;;;;;5.37;2.62;;;;;;;17.16;44.20;98917.13;4348624;33;34159;-85
2023/04/17 08:11:33;;;;;;;5.72;2.33;;;;;;;17.27;44.85;98925.66;4348499;33;34912;-85
2023/04/17 08:14:18;;;;;;;4.90;2.25;;;;;;;17.31;43.92;98916.88;4348483;33;35323;-85
2023/04/17 08:16:46;;;;;;;7.30;2.80;;;;;;;17.06;44.57;98920.84;4348614;33;34404;-85
2023/04/17 08:19:14;;;;;;;5.10;2.70;;;;;;;17.16;44.21;98914.53;4336107;33;34770;-85
2023/04/17 08:21:41;;;;;;;10.45;5.60;;;;;;;17.19;43.94;98928.44;4335965;33;35241;-85
2023/04/17 08:24:09;;;;;;;8.57;2.50;;;;;;;17.35;44.85;98925.53;4348408;33;35445;-86
2023/04/17 08:26:36;;;;;;;5.47;2.92;;;;;;;17.49;44.57;98927.00;4335972;33;35257;-85
2023/04/17 08:29:04;;;;;;;6.20;2.80;;;;;;;17.69;44.24;98923.12;4348468;33;34414;-85
2023/04/17 08:31:33;;;;;;;7.20;2.67;;;;;;;17.69;43.57;98928.38;4348407;33;35310;-85
2023/04/17 08:34:01;;;;;;;5.57;2.15;;;;;;;17.37;45.00;98922.00;4348458;33;34963;-85
2023/04/17 08:36:41;;;;;;;4.37;2.42;;;;;;;17.99;44.17;98916.41;4348179;33;35062;-85
2023/04/17 08:39:10;;;;;;;4.85;2.47;;;;;;;18.30;43.88;98918.41;4348272;33;35011;-85
2023/04/17 08:41:46;;;;;;;5.62;2.80;;;;;;;18.20;44.21;98920.34;4348374;33;35273;-85
2023/04/17 08:44:19;;;;;;;5.00;2.90;;;;;;;18.28;44.10;98910.53;4336034;33;35391;-86
2023/04/17 08:46:47;;;;;;;5.45;2.40;;;;;;;18.19;43.67;98918.63;4348255;33;35218;-85
2023/04/17 08:49:15;;;;;;;5.68;3.00;;;;;;;18.25;43.36;98910.59;4348263;33;34899;-85
2023/04/17 08:51:43;;;;;;;6.37;2.53;;;;;;;18.28;43.48;98913.16;4335733;33;35324;-85
2023/04/17 08:54:11;;;;;;;6.30;3.45;;;;;;;18.28;43.41;98922.81;4354895;33;35447;-85
2023/04/17 08:56:39;;;;;;;6.55;2.90;;;;;;;18.25;43.88;98907.97;4363016;33;34974;-83
2023/04/17 08:59:06;;;;;;;6.07;2.85;;;;;;;18.48;42.66;98902.22;4350333;33;33476;-85
2023/04/17 09:01:34;;;;;;;6.65;2.80;;;;;;;18.54;43.13;98911.72;4362938;33;34786;-85
2023/04/17 09:04:02;;;;;;;5.10;2.83;;;;;;;18.32;42.50;98914.81;4350524;33;35506;-85
2023/04/17 09:06:47;;;;;;;5.87;2.60;;;;;;;18.30;42.75;98911.37;4362735;33;35139;-86
2023/04/17 09:09:15;;;;;;;4.78;2.60;;;;;;;18.64;42.95;98897.47;4362944;33;34668;-85
2023/04/17 09:11:43;;;;;;;5.45;2.70;;;;;;;18.51;43.06;98909.16;4350423;33;34838;-85
2023/04/17 09:14:29;;;;;;;5.25;2.47;;;;;;;18.50;43.08;98907.44;4363040;33;34962;-85
2023/04/17 09:16:56;;;;;;;5.25;2.90;;;;;;;18.68;42.64;98909.63;4362743;33;35076;-85
2023/04/17 09:19:24;;;;;;;8.40;2.53;;;;;;;18.17;42.97;98904.69;4362766;33;34382;-86
2023/04/17 09:21:53;;;;;;;5.95;2.47;;;;;;;18.47;43.19;98903.97;4362870;33;34806;-85
2023/04/17 09:24:39;;;;;;;4.65;2.37;;;;;;;18.88;43.14;98919.69;4350164;33;35457;-85
2023/04/17 09:27:21;;;;;;;6.85;2.53;;;;;;;19.06;43.12;98913.97;4362793;33;34822;-85
2023/04/17 09:29:56;;;;;;;6.30;2.83;;;;;;;19.37;41.08;98903.50;4350282;33;34529;-85
2023/04/17 09:32:25;;;;;;;5.03;2.65;;;;;;;19.28;42.49;98914.28;4362764;33;35293;-85
2023/04/17 09:34:55;;;;;;;6.05;2.95;;;;;;;18.82;42.78;98910.16;4362394;33;35174;-85
2023/04/17 09:37:23;;;;;;;5.37;2.70;;;;;;;18.88;43.22;98915.28;4350315;33;35357;-85
2023/04/17 09:39:58;;;;;;;4.65;2.33;;;;;;;19.06;43.18;98913.97;4350150;33;35549;-85
2023/04/17 09:42:26;;;;;;;;;;;;;;;19.48;42.04;98912.88;4350368;33;34480;-85
2023/04/17 09:44:54;;;;;;;8.55;2.65;;;;;;;19.07;42.42;98906.94;4362613;33;35580;-85
2023/04/17 09:47:21;;;;;;;3.97;2.28;;;;;;;19.26;42.39;98900.28;4362300;33;35144;-86
2023/04/17 09:49:51;;;;;;;5.15;2.78;;;;;;;19.41;40.85;98899.03;4362393;33;34651;-86
2023/04/17 09:52:22;;;;;;;8.27;2.87;;;;;;;19.56;41.84;98906.47;4350079;33;34680;-85
2023/04/17 09:54:52;;;;;;;6.87;2.75;;;;;;;19.44;42.47;98897.16;4349900;33;35363;-86
2023/04/17 09:57:20;;;;;;;5.12;2.50;;;;;;;19.63;42.03;98894.94;4362227;33;35318;-85
2023/04/17 09:59:48;;;;;;;8.77;1.98;;;;;;;19.25;42.22;98895.94;4349816;33;34771;-85
2023/04/17 10:02:17;;;;;;;7.40;2.33;;;;;;;19.19;41.40;98896.09;4362146;33;35303;-86
2023/04/17 10:04:46;;;;;;;4.95;2.22;;;;;;;19.30;39.95;98894.03;4349845;33;35608;-85
2023/04/17 10:07:15;;;;;;;4.65;2.30;;;;;;;19.34;40.99;98890.44;4362260;33;35256;-86
2023/04/17 10:09:45;;;;;;;4.40;1.90;;;;;;;19.32;41.03;98891.38;4349738;33;34810;-86
2023/04/17 10:12:17;;;;;;;3.95;2.00;;;;;;;19.37;40.07;98885.09;4362137;33;35398;-85
2023/04/17 10:14:47;;;;;;;4.32;2.00;;;;;;;19.51;41.13;98889.09;4349696;33;35466;-85
2023/04/17 10:17:27;;;;;;;4.72;2.05;;;;;;;19.62;39.62;98884.44;4337229;33;34095;-85
2023/04/17 10:19:55;;;;;;;5.15;2.12;;;;;;;19.91;40.07;98871.28;4351549;33;35079;-86
2023/04/17 10:22:23;;;;;;;4.00;1.73;;;;;;;19.47;40.31;98884.81;4363965;33;35437;-85
2023/04/17 10:25:14;;;;;;;3.75;1.85;;;;;;;19.38;38.71;98881.56;4364074;33;35094;-85
2023/04/17 10:27:44;;;;;;;4.47;2.00;;;;;;;19.49;38.53;98880.41;4364079;33;34840;-85
2023/04/17 10:30:13;;;;;;;4.75;2.08;;;;;;;19.40;40.35;98879.75;4345833;33;34769;-85
2023/04/17 10:32:43;;;;;;;8.30;2.35;;;;;;;19.00;40.09;98881.72;4363820;33;35276;-86
2023/04/17 10:35:16;;;;;;;6.90;2.17;;;;;;;19.14;41.23;98879.59;4351467;33;35304;-86
2023/04/17 10:37:51;;;;;;;4.45;2.05;;;;;;;19.24;39.37;98874.94;4364044;33;35383;-85
2023/04/17 10:40:24;;;;;;;4.12;2.10;;;;;;;19.61;39.14;98874.78;4363969;33;34363;-85
2023/04/17 10:43:04;;;;;;;4.68;2.12;;;;;;;19.16;40.97;98872.53;4351509;33;35014;-85
2023/04/17 10:46:05;;;;;;;5.53;2.40;;;;;;;19.34;39.77;98879.91;4351273;33;35509;-85
2023/04/17 10:48:37;;;;;;;4.53;2.30;;;;;;;19.34;39.57;98876.44;4363755;33;35574;-85
2023/04/17 10:51:20;;;;;;;4.95;2.10;;;;;;;19.30;40.99;98880.06;4363823;33;34845;-85
2023/04/17 10:53:50;;;;;;;4.40;2.25;;;;;;;18.92;41.78;98877.53;4363672;33;35375;-85
2023/04/17 10:56:23;;;;;;;5.28;2.53;;;;;;;19.23;40.33;98881.97;4351307;33;34932;-85
2023/04/17 10:58:56;;;;;;;5.47;2.22;;;;;;;19.34;41.04;98873.81;4339430;33;34920;-85
2023/04/17 11:01:26;;;;;;;6.07;2.92;;;;;;;18.79;41.27;98867.34;4351223;33;34244;-85
2023/04/17 11:03:58;;;;;;;8.35;3.42;;;;;;;19.15;41.00;98869.03;4351643;33;35223;-85
2023/04/17 11:06:27;;;;;;;5.00;2.45;;;;;;;19.04;40.09;98871.09;4363664;33;35354;-85
2023/04/17 11:08:56;;;;;;;5.68;3.20;;;;;;;18.41;42.05;98877.00;4351231;33;35575;-86
2023/04/17 11:11:25;;;;;;;6.53;2.87;;;;;;;18.94;41.33;98882.72;4339382;33;34795;-85
2023/04/17 11:14:15;;;;;;;4.85;2.40;;;;;;;18.48;41.16;98868.94;4352984;33;35350;-85
2023/04/17 11:16:45;;;;;;;5.87;2.80;;;;;;;18.79;40.60;98867.34;4351021;33;35373;-85
2023/04/17 11:19:17;;;;;;;6.15;2.53;;;;;;;18.24;41.32;98874.78;4345284;33;34927;-85
2023/04/17 11:21:47;;;;;;;5.55;2.33;;;;;;;18.31;42.25;98870.25;4351062;33;33132;-85
2023/04/17 11:24:26;;;;;;;6.90;3.53;;;;;;;18.61;42.49;98876.53;4351063;33;35187;-85
2023/04/17 11:26:56;;;;;;;6.57;2.58;;;;;;;18.72;43.24;98874.56;4351110;33;35244;-85
2023/04/17 11:29:25;;;;;;;5.45;2.30;;;;;;;18.81;40.90;98873.44;4350436;33;35078;-85
2023/04/17 11:31:54;;;;;;;6.50;2.92;;;;;;;18.32;41.58;98862.34;4350520;33;35060;-85
2023/04/17 11:34:21;;;;;;;5.28;2.47;;;;;;;18.20;43.53;98860.88;4363508;33;35023;-85
2023/04/17 11:36:50;;;;;;;4.57;2.33;;;;;;;18.85;42.22;98867.22;4363554;33;35528;-85
2023/04/17 11:39:19;;;;;;;6.40;2.37;;;;;;;18.78;41.99;98868.28;4363476;33;34857;-85
2023/04/17 11:41:46;;;;;;;6.03;3.12;;;;;;;19.05;40.90;98864.06;4363526;33;34451;-85
2023/04/17 11:44:16;;;;;;;5.93;3.10;;;;;;;18.79;40.46;98870.88;4350897;33;35281;-85
2023/04/17 11:46:53;;;;;;;8.35;3.42;;;;;;;18.85;43.00;98867.22;4363501;33;35457;-85
2023/04/17 11:49:28;;;;;;;4.90;2.70;;;;;;;18.92;41.59;98861.75;4363534;33;35269;-85
2023/04/17 11:51:58;;;;;;;9.13;3.25;;;;;;;18.99;41.72;98865.09;4363473;33;34532;-85
2023/04/17 11:54:27;;;;;;;6.07;3.00;;;;;;;19.31;40.51;98860.75;4350866;33;35367;-85
2023/04/17 11:57:20;;;;;;;6.10;2.50;;;;;;;19.44;40.03;98860.38;4363277;33;34787;-85
2023/04/17 11:59:48;;;;;;;5.05;2.35;;;;;;;19.36;40.07;98864.13;4361915;33;36099;-85
2023/04/17 12:02:16;;;;;;;5.65;2.65;;;;;;;19.26;40.26;98870.53;4363367;33;34728;-85
2023/04/17 12:04:44;;;;;;;3.95;1.92;;;;;;;18.95;41.69;98866.94;4350914;33;35304;-85
2023/04/17 12:07:20;;;;;;;4.53;1.98;;;;;;;19.43;41.54;98868.28;4357352;33;35346;-85
2023/04/17 12:09:56;;;;;;;6.72;2.70;;;;;;;19.37;40.75;98874.59;4350874;33;34702;-85
2023/04/17 12:12:23;;;;;;;5.25;2.42;;;;;;;19.44;40.40;98863.00;4363230;33;34681;-86
2023/04/17 12:14:51;;;;;;;5.10;2.10;;;;;;;19.66;40.73;98868.53;4363194;33;35411;-85
2023/04/17 12:17:18;;;;;;;4.57;2.25;;;;;;;19.67;40.01;98862.38;4363259;33;35353;-85
2023/04/17 12:19:46;;;;;;;11.10;2.72;;;;;;;19.96;40.09;98859.78;4350814;33;35415;-85
2023/04/17 12:22:13;;;;;;;5.47;2.22;;;;;;;20.16;38.76;98863.53;4363177;33;34823;-85